CW4635 Weather Reports


Display with metric or nautical units.
time (UTC)temp
F
wind
direction
speed
MPH
gust
MPH
rain 1hr
in
rain 24hr
in
rain mn
in
humidity
%
barometer
mb
20211130051551 48 255 0.0 2.0 0.00 0.10 0.10 98 1020.6
20211130050129 48 255 0.0 4.0 0.00 0.10 0.10 98 1020.5
20211130044543 48 286 1.0 3.0 0.01 0.10 0.10 97 1020.4
20211130043051 49 207 0.0 2.0 0.01 0.10 0.10 97 1020.3
20211130041546 49 197 1.0 2.0 0.01 0.10 0.10 97 1020.0
20211130040138 49 178 1.0 2.0 0.01 0.10 0.10 98 1020.3
20211130034554 49 161 1.0 3.0 0.00 0.09 0.09 98 1020.5
20211130033056 49 235 1.0 3.0 0.00 0.09 0.09 97 1021.0
20211130031536 49 238 3.0 4.0 0.00 0.09 0.09 97 1020.9
20211130030055 49 229 2.0 4.0 0.00 0.09 0.09 98 1021.4
20211130024554 50 169 0.0 3.0 0.00 0.09 0.09 97 1021.4
20211130023042 50 235 0.0 4.0 0.00 0.09 0.09 98 1021.4
20211130021542 50 221 3.0 5.0 0.00 0.09 0.09 98 1021.5
20211130020106 50 227 3.0 4.0 0.00 0.09 0.09 98 1021.6
20211130014551 50 238 3.0 5.0 0.00 0.09 0.09 98 1021.9
20211130013126 50 244 2.0 6.0 0.00 0.09 0.09 98 1021.9
20211130011618 50 242 3.0 5.0 0.00 0.09 0.09 98 1021.9
20211130010030 50 236 2.0 6.0 0.00 0.09 0.09 98 1021.9
20211130004551 50 242 1.0 4.0 0.00 0.09 0.09 98 1022.0
20211130003037 49 271 1.0 4.0 0.00 0.09 0.09 98 1021.9
20211130001545 50 253 0.0 1.0 0.00 0.09 0.09 98 1021.9
20211130000054 50 253 0.0 3.0 0.00 0.09 0.09 98 1021.9
20211129234528 50 97 0.0 0.0 0.00 0.09 0.09 98 1021.7
20211129233045 49 97 0.0 3.0 0.00 0.09 0.09 98 1021.9
20211129231549 49 149 0.0 4.0 0.00 0.09 0.09 98 1022.1
20211129230024 49 135 1.0 4.0 0.00 0.09 0.09 97 1022.2
20211129224533 49 108 2.0 5.0 0.00 0.09 0.09 97 1022.5
20211129223027 50 115 0.0 3.0 0.00 0.09 0.09 98 1022.5
20211129221531 51 119 0.0 2.0 0.00 0.09 0.09 98 1022.5
20211129220038 50 160 1.0 3.0 0.00 0.10 0.09 98 1022.5
20211129214521 50 204 0.0 0.0 0.00 0.10 0.09 98 1022.5
20211129213015 49 142 0.0 2.0 0.00 0.10 0.09 98 1022.5
20211129211535 49 126 4.0 7.0 0.00 0.10 0.09 97 1022.6
20211129210011 50 161 2.0 6.0 0.00 0.10 0.09 98 1022.5
20211129204522 50 163 1.0 4.0 0.00 0.10 0.09 98 1022.6
20211129203037 51 113 2.0 4.0 0.00 0.10 0.09 98 1022.4
20211129201525 50 108 2.0 3.0 0.00 0.10 0.09 97 1022.5
20211129200007 50 130 2.0 3.0 0.00 0.16 0.09 98 1022.7
20211129194508 50 98 1.0 5.0 0.00 0.16 0.09 97 1022.9
20211129193013 50 103 0.0 5.0 0.00 0.16 0.09 98 1023.0
20211129191510 51 110 2.0 5.0 0.00 0.16 0.09 97 1023.3
20211129190007 51 128 0.0 3.0 0.00 0.23 0.09 98 1023.2
20211129184503 51 128 2.0 3.0 0.00 0.23 0.09 97 1023.0
20211129183002 51 115 1.0 3.0 0.00 0.23 0.09 97 1023.0
20211129181722 51 106 1.0 4.0 0.00 0.23 0.09 97 1023.0
20211129180214 51 90 2.0 5.0 0.00 0.23 0.09 97 1022.9
20211129174750 51 108 2.0 4.0 0.00 0.30 0.09 97 1022.9
20211129173225 51 124 1.0 4.0 0.00 0.30 0.09 97 1022.5
20211129171615 51 249 0.0 3.0 0.00 0.30 0.09 97 1022.3
20211129170130 51 137 0.0 5.0 0.01 0.30 0.09 97 1022.0
20211129164605 51 138 0.0 3.0 0.04 0.44 0.09 97 1021.9
20211129163227 51 134 0.0 3.0 0.08 0.44 0.09 97 1021.9
20211129161749 52 156 2.0 5.0 0.09 0.44 0.09 97 1021.9
20211129160115 52 233 0.0 1.0 0.08 0.43 0.08 97 1021.9
20211129154636 52 246 0.0 1.0 0.04 0.48 0.04 97 1021.9
20211129153158 52 246 0.0 3.0 0.01 0.45 0.01 97 1022.0
20211129151613 52 205 0.0 1.0 0.00 0.44 0.00 97 1021.9
20211129150127 52 205 0.0 0.0 0.00 0.44 0.00 97 1021.7
20211129144616 52 205 0.0 2.0 0.00 0.49 0.00 97 1021.4
20211129143229 52 205 0.0 0.0 0.00 0.49 0.00 97 1021.1
20211129141639 52 205 0.0 0.0 0.00 0.49 0.00 97 1021.0
20211129140239 52 205 0.0 0.0 0.00 0.49 0.00 97 1020.9
20211129134711 52 205 0.0 2.0 0.00 0.52 0.00 97 1020.9
20211129133135 52 205 0.0 0.0 0.00 0.52 0.00 97 1020.6
20211129131636 52 205 0.0 0.0 0.00 0.52 0.00 97 1020.7
20211129130052 52 205 0.0 0.0 0.00 0.52 0.00 97 1020.8
20211129124554 52 205 0.0 0.0 0.00 0.52 0.00 97 1020.7
20211129123058 52 205 0.0 0.0 0.00 0.52 0.00 96 1020.7
20211129121717 52 205 0.0 0.0 0.00 0.52 0.00 96 1020.5
20211129120202 52 205 0.0 1.0 0.00 0.52 0.00 96 1020.5
20211129114552 52 174 0.0 2.0 0.00 0.52 0.00 96 1020.4
20211129113108 51 194 1.0 4.0 0.00 0.52 0.00 96 1020.4
20211129111616 52 167 1.0 5.0 0.00 0.52 0.00 96 1020.6
20211129110055 51 147 0.0 2.0 0.00 0.52 0.00 95 1020.7
20211129104553 52 146 0.0 2.0 0.00 0.52 0.00 95 1020.6
20211129103111 52 146 0.0 0.0 0.00 0.52 0.00 95 1020.7
20211129101611 53 146 0.0 1.0 0.00 0.52 0.00 95 1020.9
20211129100114 53 146 0.0 1.0 0.00 0.52 0.00 95 1020.9
20211129094604 53 131 2.0 5.0 0.00 0.52 0.00 96 1020.9
20211129093104 53 256 0.0 6.0 0.00 0.52 0.00 96 1020.7
20211129091551 53 219 0.0 3.0 0.00 0.52 0.00 96 1020.9
20211129090147 53 241 1.0 5.0 0.00 0.52 0.00 96 1020.9
20211129084551 53 163 0.0 4.0 0.00 0.52 0.00 96 1020.8
20211129083051 53 129 2.0 7.0 0.00 0.52 0.00 96 1020.8
20211129081534 53 254 2.0 6.0 0.00 0.52 0.00 96 1020.9
20211129080108 52 263 1.0 3.0 0.00 0.52 0.52 96 1020.8
20211129074542 52 186 0.0 3.0 0.00 0.52 0.52 96 1021.0
20211129073041 52 156 1.0 4.0 0.00 0.52 0.52 96 1020.9
20211129071557 52 151 2.0 4.0 0.00 0.52 0.52 96 1020.8
20211129070024 52 153 0.0 5.0 0.00 0.53 0.52 96 1020.7
20211129064518 52 144 2.0 4.0 0.00 0.53 0.52 96 1020.4
20211129063022 52 163 3.0 5.0 0.00 0.53 0.52 96 1020.7
20211129061518 52 157 1.0 2.0 0.00 0.53 0.52 95 1020.5
20211129060047 52 157 1.0 4.0 0.00 0.60 0.52 95 1020.5
20211129054558 53 147 2.0 4.0 0.00 0.60 0.52 95 1020.4
20211129053015 53 186 0.0 5.0 0.00 0.60 0.52 95 1020.3